Terminal Aerodrome Forecast
Issued by NWS Indianapolis, IN

Home | Current Version | Previous Version | Text Only | Print | Product List | Glossary On
Versions: 1 2 3 4 5 6 7 8 9 10 11 12 13 14 15 16 17 18 19 20 21 22
000
FTUS43 KIND 211120
TAFIND
TAF
KIND 211120Z 2112/2218 VRB03KT P6SM SCT040 BKN200
     FM211800 23007KT P6SM VCTS BKN040CB
     FM220100 20004KT P6SM SCT200
     FM221200 22006KT P6SM -SHRA VCTS OVC045CB
     FM221400 24007KT P6SM -SHRA VCTS OVC030CB=

USA.gov is the U.S. government's official web portal to all federal, state and local government web resources and services.